Flight Track Log - Related Links

Times and Time Zones

All times are in EST time to prevent confusion due to time zone crossing. See the AAL2222 flight status page for this flight to view local times or setup timezone preferences in your user account.

Time Position Orientation Groundspeed Altitude Reporting Facility
EST Latitude Longitude Course Direction KTS MPH feet Rate Location/Type
Thu 03:41:00 PM 30.3663 -97.6308 41° Northeast  Level Estimated
Thu 03:42:00 PM 30.4234 -97.5564 329° Northwest  Level FlightAware Approximate
Thu 03:42:11 PM 30.3792 -97.7683 337° Northwest 265 305 10,100  Level Houston Center
Thu 03:43:00 PM 30.4984 -97.6088 329° Northwest  Level FlightAware Approximate
Thu 03:43:13 PM 30.4569 -97.8039 338° Northwest 289 333 12,000  Level Houston Center
Thu 03:44:00 PM 30.5706 -97.6659 323° Northwest  Level FlightAware Approximate
Thu 03:44:15 PM 30.5497 -97.8447 339° North 338 389 13,700  Level Houston Center
Thu 03:45:00 PM 30.6417 -97.7281 323° Northwest  Level FlightAware Approximate
Thu 03:45:17 PM 30.6417 -97.8911 337° Northwest 351 404 15,300  Level Houston Center
Thu 03:46:00 PM 30.7162 -97.7829 319° Northwest  Level FlightAware Approximate
Thu 03:46:19 PM 30.7397 -97.9328 340° North 363 418 17,100  Level Houston Center
Thu 03:47:21 PM 30.8406 -97.9706 342° North 372 428 19,300 2,323 Climbing Houston Center
Thu 03:48:23 PM 30.9583 -98.0256 338° Northwest 382 440 21,900 1,728 Climbing Houston Center
Thu 03:49:26 PM 31.0650 -98.0642 343° North 391 450 22,900 528 Climbing Houston Center
Thu 03:50:28 PM 31.1706 -98.1136 338° Northwest 401 461 23,000 48 Climbing Houston Center
Thu 03:51:30 PM 31.2742 -98.1594 339° North 396 456 23,000  Level Houston Center
Thu 03:52:32 PM 31.3894 -98.1286 13° North 415 478 23,000  Level Houston Center
Thu 03:53:34 PM 31.4981 -98.0750 23° Northeast 420 483 23,000  Level Houston Center
Thu 03:54:43 PM 31.6258 -98.0153 22° Northeast 424 488 23,000  Level Fort Worth Center
Thu 03:55:45 PM 31.7442 -97.9561 23° Northeast 452 520 23,000 -581 Level Fort Worth Center
Thu 03:56:47 PM 31.8628 -97.8989 22° Northeast 454 522 21,800 -2,323 Descending Fort Worth Center
Thu 03:57:49 PM 31.9906 -97.8364 23° Northeast 443 510 18,200 -2,806 Descending Fort Worth Center
Thu 03:58:51 PM 32.1083 -97.7775 23° Northeast 422 486 16,000 -2,371 Descending Fort Worth Center
Thu 03:59:53 PM 32.2111 -97.7292 22° Northeast 399 459 13,300 -2,256 Descending Fort Worth Center
Thu 04:00:56 PM 32.3158 -97.6764 23° Northeast 377 434 11,300 -1,344 Descending Fort Worth Center
Thu 04:01:58 PM 32.3831 -97.6119 39° Northeast 309 356 10,500 -1,113 Descending Fort Worth Center
Thu 04:03:00 PM 32.4439 -97.5406 45° Northeast 289 333 9,000 -1,500 Descending Fort Worth Center
Thu 04:04:02 PM 32.4864 -97.4658 56° Northeast 274 315 7,400 -1,452 Descending Fort Worth Center
Thu 04:05:04 PM 32.5228 -97.3769 64° Northeast 278 320 6,000 -1,065 Descending Fort Worth Center
Thu 04:06:06 PM 32.5536 -97.2942 66° East 277 319 5,200 -484 Descending Fort Worth Center
Thu 04:07:08 PM 32.5869 -97.2139 64° Northeast 273 314 5,000 -387 Descending Fort Worth Center
Thu 04:08:10 PM 32.6206 -97.1314 64° Northeast 261 300 4,400 -686 Descending Fort Worth Center
Thu 04:08:53 PM 32.6500 -97.0667 62° Northeast 254 292 3,800 -661 Descending Dallas / Fort Worth TRACON
Thu 04:09:59 PM 32.7000 -97.0333 29° Northeast 251 289 3,200 -432 Descending Dallas / Fort Worth TRACON
Thu 04:10:58 PM 32.7667 -97.0167 12° North 193 222 2,900 -706 Descending Dallas / Fort Worth TRACON
Thu 04:11:58 PM 32.8167 -97.0167 360° North 153 176 1,800 -893 Descending Dallas / Fort Worth TRACON
Thu 04:12:59 PM 32.8500 -97.0167 360° North 142 163 1,100 -689 Descending Dallas / Fort Worth TRACON

Login

Don't have an account? Register now (free) for customized features, flight alerts, and more!